Terminal Aerodrome Forecast
Issued by NWS Grand Forks, ND

Home | Current Version | Previous Version | Graphics & Text | Print | Product List | Glossary On
Versions: 1 2 3 4 5 6 7 8 9 10 11 12 13 14 15
000
FTUS43 KFGF 240800 AAA
TAFFAR
TAF AMD
KFAR 240829Z 2408/2506 10011KT P6SM -SHRA OVC040
      TEMPO 2408/2412 5SM -SHRA BKN030
     FM241200 13016G22KT P6SM -RA OVC030
     FM241800 12016G21KT P6SM OVC025
     FM250000 10013KT P6SM OVC015=

USA.gov is the U.S. government's official web portal to all federal, state and local government web resources and services.